Lyndhurst, Virginia
Current Conditions -  °F | °C
As of 6:15 AM on Tuesday 21 Oct 2014 (Local Time) from KW13 Reporting Station
Scattered Clouds Scattered Clouds  
Wind Chill: 52°   Ceiling: Unl
Heat Index: 52°   Visibility: 10mi
Dew Point: 45°   Wind: 8mph
Humidity: 76%   Direction: 240°WSW
Pressure: 29.88"   Gusts: NA
Location:  38.03°N, 78.95°W
Report Text: KW13 211015Z AUTO 24007KT 10SM SCT120 11/07 A2988 RMK AO1 T01100070
Loading
Personal Weather Stations






























Interactive Weather Map
Tropical Storm Tracking
New forecast layout! Learn more

10-Day Weather Forecast

Advertisements
Track Severe Weather on mobile